Eviapetrol I — SY5401 — position and weather

sailwx.info

Track history (hours):
 
Tides and Currents Weather Stations Pressure Air Temp Water Temp Dewpoint Dewpoint Depression Visibility Wind Speed Wind Dir Waves Ship Positions

Eviapetrol I

Last reported at 2014-Jul-24 16:06 UTC. Time now 2014-Jul-24 17:02 UTC.
Position N 38°02' E 023°36'.

Length 75 m; draft 3.5 m.

Type: Tanker. MMSI: 240285000.

Date/timePositionNaut miles runAvg speedWind from/ knotsBaromVisibWave heightAir tempDewpointWater temp
2014-Jul-24 16:06N 38°02' E 023°36'0 0.1
2014-Jul-24 15:33N 38°02' E 023°36'3 3.2
2014-Jul-24 14:33N 38°01' E 023°32'0 0.0
2014-Jul-24 13:33N 38°01' E 023°32'3 2.9
2014-Jul-24 12:33N 37°59' E 023°33'10 9.7
2014-Jul-24 11:33N 37°51' E 023°40'1310.2
2014-Jul-24 10:15N 37°39' E 023°48'4110.3
2014-Jul-24 06:17N 37°08' E 024°21'810.1
2014-Jul-24 05:28N 37°02' E 024°28'910.1
2014-Jul-24 04:32N 36°54' E 024°35'1010.0
2014-Jul-24 03:33N 36°46' E 024°42'10 9.4
2014-Jul-24 02:32N 36°37' E 024°40'10 9.7
2014-Jul-24 01:33N 36°28' E 024°34'9 8.8
2014-Jul-24 00:33N 36°20' E 024°37'9 9.2
2014-Jul-23 23:33N 36°11' E 024°41'9 8.7
2014-Jul-23 22:33N 36°03' E 024°45'12 8.5
2014-Jul-23 21:11N 35°52' E 024°50'6 8.2
2014-Jul-23 20:31N 35°47' E 024°53'8 8.5
2014-Jul-23 19:32N 35°40' E 024°57'9 9.1
2014-Jul-23 18:33N 35°31' E 025°01'10 8.7
2014-Jul-23 17:26N 35°22' E 025°03'1 0.2
2014-Jul-23 12:15N 35°21' E 025°03'0 0.0
2014-Jul-23 06:16N 35°21' E 025°03'1 0.8
2014-Jul-23 05:32N 35°21' E 025°03'9 8.0
2014-Jul-23 04:26N 35°30' E 025°01'12 9.7
2014-Jul-23 03:14N 35°40' E 024°54'1710.3
2014-Jul-23 01:33N 35°55' E 024°44'1110.7
2014-Jul-23 00:33N 36°05' E 024°38'1010.2
2014-Jul-22 23:33N 36°14' E 024°32'1010.0
2014-Jul-22 22:33N 36°22' E 024°25'10 9.4
2014-Jul-22 21:26N 36°31' E 024°19'8 8.8
2014-Jul-22 20:30N 36°39' E 024°14'8 8.6
2014-Jul-22 19:32N 36°47' E 024°10'9 8.8
2014-Jul-22 18:30N 36°55' E 024°06'11 9.4
2014-Jul-22 17:17N 37°05' E 023°60'7 9.2
2014-Jul-22 16:33N 37°11' E 023°56'9 9.1
2014-Jul-22 15:33N 37°20' E 023°52'9 8.7
2014-Jul-22 14:33N 37°28' E 023°49'11 9.0
2014-Jul-22 13:18N 37°38' E 023°43'7 9.6
2014-Jul-22 12:33N 37°45' E 023°39'9 9.1
2014-Jul-22 11:33N 37°54' E 023°36'8 7.7
2014-Jul-22 10:33N 38°01' E 023°32'1 1.1
2014-Jul-22 09:31N 38°02' E 023°32'0 0.0
2014-Jul-22 08:31N 38°02' E 023°32'0 0.0
2014-Jul-22 07:31N 38°02' E 023°32'0 0.0
2014-Jul-22 06:28N 38°02' E 023°32'3 3.1
2014-Jul-22 05:33N 38°02' E 023°35'0 0.3
2014-Jul-22 04:31N 38°02' E 023°36'0 0.0
2014-Jul-22 03:31N 38°02' E 023°36'0 0.0
2014-Jul-22 02:25N 38°02' E 023°36'0 0.0
2014-Jul-22 01:19N 38°02' E 023°36'0 0.0
2014-Jul-22 00:19N 38°02' E 023°36'0 0.0
2014-Jul-21 20:10N 38°02' E 023°36'0 0.0
2014-Jul-21 18:31N 38°02' E 023°36'0 0.0
2014-Jul-21 17:19N 38°02' E 023°36'0 0.4
2014-Jul-21 16:32N 38°02' E 023°35'3 3.3
2014-Jul-21 15:33N 38°02' E 023°31'  
2014-Jul-18 19:30N 37°55' E 023°10'9 9.9
2014-Jul-18 18:33N 37°57' E 023°22'9 7.6
2014-Jul-18 17:20N 38°01' E 023°32'3 2.4
2014-Jul-18 16:12N 38°02' E 023°36'0 0.0
2014-Jul-18 11:18N 38°02' E 023°36'0 0.2
2014-Jul-18 09:24N 38°02' E 023°35'3 0.3
2014-Jul-18 00:33N 38°02' E 023°31'0 0.0
2014-Jul-17 23:24N 38°02' E 023°31'0 0.0
2014-Jul-17 22:30N 38°02' E 023°31'1 0.5
2014-Jul-17 21:29N 38°02' E 023°31'7 7.7
2014-Jul-17 20:33N 37°57' E 023°24'8 8.1
2014-Jul-17 19:33N 37°50' E 023°30'9 8.8
2014-Jul-17 18:33N 37°47' E 023°41'61 9.7
2014-Jul-17 12:13N 36°59' E 024°28'7 9.6
2014-Jul-17 11:29N 36°53' E 024°33'9 7.9
2014-Jul-17 10:22N 36°45' E 024°35'2 0.2
2014-Jul-17 00:25N 36°45' E 024°33'8 8.7
2014-Jul-16 23:32N 36°44' E 024°43'10 9.4
2014-Jul-16 22:32N 36°46' E 024°54'9 9.5
2014-Jul-16 21:32N 36°48' E 025°06'10 9.7
2014-Jul-16 20:33N 36°49' E 025°18'1010.3
2014-Jul-16 19:33N 36°47' E 025°30'1010.3
2014-Jul-16 18:33N 36°45' E 025°43'62 3.1
2014-Jul-15 22:24N 36°50' E 027°00'8 8.7
2014-Jul-15 21:28N 36°44' E 026°54'8 8.9
2014-Jul-15 20:33N 36°37' E 026°58'8 8.3
2014-Jul-15 19:33N 36°32' E 027°07'31 9.5
2014-Jul-15 16:19N 36°30' E 027°45'33 1.9
2014-Jul-14 23:03N 36°32' E 027°04'34 9.6
2014-Jul-14 19:30N 36°40' E 026°23'10 9.9
2014-Jul-14 18:32N 36°42' E 026°11'12 9.7
2014-Jul-14 17:20N 36°43' E 025°57'7 9.5
2014-Jul-14 16:33N 36°44' E 025°48'  
Track history (hours):
 
Tides and Currents Weather Stations Pressure Air Temp Water Temp Dewpoint Dewpoint Depression Visibility Wind Speed Wind Dir Waves Ship Positions

Eviapetrol I

Last reported at 2014-Jul-24 16:06 UTC. Time now 2014-Jul-24 17:02 UTC.
Position N 38°02' E 023°36'.

Length 75 m; draft 3.5 m.

Type: Tanker. MMSI: 240285000.

Date/timePositionNaut miles runAvg speedWind from/ knotsBaromVisibWave heightAir tempDewpointWater temp
2014-Jul-24 16:06N 38°02' E 023°36'0 0.1
2014-Jul-24 15:33N 38°02' E 023°36'3 3.2
2014-Jul-24 14:33N 38°01' E 023°32'0 0.0
2014-Jul-24 13:33N 38°01' E 023°32'3 2.9
2014-Jul-24 12:33N 37°59' E 023°33'10 9.7
2014-Jul-24 11:33N 37°51' E 023°40'1310.2
2014-Jul-24 10:15N 37°39' E 023°48'4110.3
2014-Jul-24 06:17N 37°08' E 024°21'810.1
2014-Jul-24 05:28N 37°02' E 024°28'910.1
2014-Jul-24 04:32N 36°54' E 024°35'1010.0
2014-Jul-24 03:33N 36°46' E 024°42'10 9.4
2014-Jul-24 02:32N 36°37' E 024°40'10 9.7
2014-Jul-24 01:33N 36°28' E 024°34'9 8.8
2014-Jul-24 00:33N 36°20' E 024°37'9 9.2
2014-Jul-23 23:33N 36°11' E 024°41'9 8.7
2014-Jul-23 22:33N 36°03' E 024°45'12 8.5
2014-Jul-23 21:11N 35°52' E 024°50'6 8.2
2014-Jul-23 20:31N 35°47' E 024°53'8 8.5
2014-Jul-23 19:32N 35°40' E 024°57'9 9.1
2014-Jul-23 18:33N 35°31' E 025°01'10 8.7
2014-Jul-23 17:26N 35°22' E 025°03'1 0.2
2014-Jul-23 12:15N 35°21' E 025°03'0 0.0
2014-Jul-23 06:16N 35°21' E 025°03'1 0.8
2014-Jul-23 05:32N 35°21' E 025°03'9 8.0
2014-Jul-23 04:26N 35°30' E 025°01'12 9.7
2014-Jul-23 03:14N 35°40' E 024°54'1710.3
2014-Jul-23 01:33N 35°55' E 024°44'1110.7
2014-Jul-23 00:33N 36°05' E 024°38'1010.2
2014-Jul-22 23:33N 36°14' E 024°32'1010.0
2014-Jul-22 22:33N 36°22' E 024°25'10 9.4
2014-Jul-22 21:26N 36°31' E 024°19'8 8.8
2014-Jul-22 20:30N 36°39' E 024°14'8 8.6
2014-Jul-22 19:32N 36°47' E 024°10'9 8.8
2014-Jul-22 18:30N 36°55' E 024°06'11 9.4
2014-Jul-22 17:17N 37°05' E 023°60'7 9.2
2014-Jul-22 16:33N 37°11' E 023°56'9 9.1
2014-Jul-22 15:33N 37°20' E 023°52'9 8.7
2014-Jul-22 14:33N 37°28' E 023°49'11 9.0
2014-Jul-22 13:18N 37°38' E 023°43'7 9.6
2014-Jul-22 12:33N 37°45' E 023°39'9 9.1
2014-Jul-22 11:33N 37°54' E 023°36'8 7.7
2014-Jul-22 10:33N 38°01' E 023°32'1 1.1
2014-Jul-22 09:31N 38°02' E 023°32'0 0.0
2014-Jul-22 08:31N 38°02' E 023°32'0 0.0
2014-Jul-22 07:31N 38°02' E 023°32'0 0.0
2014-Jul-22 06:28N 38°02' E 023°32'3 3.1
2014-Jul-22 05:33N 38°02' E 023°35'0 0.3
2014-Jul-22 04:31N 38°02' E 023°36'0 0.0
2014-Jul-22 03:31N 38°02' E 023°36'0 0.0
2014-Jul-22 02:25N 38°02' E 023°36'0 0.0
2014-Jul-22 01:19N 38°02' E 023°36'0 0.0
2014-Jul-22 00:19N 38°02' E 023°36'0 0.0
2014-Jul-21 20:10N 38°02' E 023°36'0 0.0
2014-Jul-21 18:31N 38°02' E 023°36'0 0.0
2014-Jul-21 17:19N 38°02' E 023°36'0 0.4
2014-Jul-21 16:32N 38°02' E 023°35'3 3.3
2014-Jul-21 15:33N 38°02' E 023°31'  
2014-Jul-18 19:30N 37°55' E 023°10'9 9.9
2014-Jul-18 18:33N 37°57' E 023°22'9 7.6
2014-Jul-18 17:20N 38°01' E 023°32'3 2.4
2014-Jul-18 16:12N 38°02' E 023°36'0 0.0
2014-Jul-18 11:18N 38°02' E 023°36'0 0.2
2014-Jul-18 09:24N 38°02' E 023°35'3 0.3
2014-Jul-18 00:33N 38°02' E 023°31'0 0.0
2014-Jul-17 23:24N 38°02' E 023°31'0 0.0
2014-Jul-17 22:30N 38°02' E 023°31'1 0.5
2014-Jul-17 21:29N 38°02' E 023°31'7 7.7
2014-Jul-17 20:33N 37°57' E 023°24'8 8.1
2014-Jul-17 19:33N 37°50' E 023°30'9 8.8
2014-Jul-17 18:33N 37°47' E 023°41'61 9.7
2014-Jul-17 12:13N 36°59' E 024°28'7 9.6
2014-Jul-17 11:29N 36°53' E 024°33'9 7.9
2014-Jul-17 10:22N 36°45' E 024°35'2 0.2
2014-Jul-17 00:25N 36°45' E 024°33'8 8.7
2014-Jul-16 23:32N 36°44' E 024°43'10 9.4
2014-Jul-16 22:32N 36°46' E 024°54'9 9.5
2014-Jul-16 21:32N 36°48' E 025°06'10 9.7
2014-Jul-16 20:33N 36°49' E 025°18'1010.3
2014-Jul-16 19:33N 36°47' E 025°30'1010.3
2014-Jul-16 18:33N 36°45' E 025°43'62 3.1
2014-Jul-15 22:24N 36°50' E 027°00'8 8.7
2014-Jul-15 21:28N 36°44' E 026°54'8 8.9
2014-Jul-15 20:33N 36°37' E 026°58'8 8.3
2014-Jul-15 19:33N 36°32' E 027°07'31 9.5
2014-Jul-15 16:19N 36°30' E 027°45'33 1.9
2014-Jul-14 23:03N 36°32' E 027°04'34 9.6
2014-Jul-14 19:30N 36°40' E 026°23'10 9.9
2014-Jul-14 18:32N 36°42' E 026°11'12 9.7
2014-Jul-14 17:20N 36°43' E 025°57'7 9.5
2014-Jul-14 16:33N 36°44' E 025°48'  

Dump ship's entire track history